Atlanta, GA (30369)

4:35 AM EST on December 28, 2014 (GMT -0500)
Whittier Mill Village | Change Station
CLOSE
Current Station
Personal Weather Station
Location: Atlanta, GA
Elevation: 814 ft
Nearby Weather Stations

Elev 814 ft 33.81 °N, 84.48 °W | Updated 3 seconds ago

Rain
Rain
52.9 °F
Feels Like 52.9 °F
N
0.0
Wind Variable Wind from SSE
Gusts 0.0 mph

Today
High -- | Low -- °F
--% Chance of Precip.
Yesterday
High -- | Low -- °F
Precip. -- in
7:41 AM 5:37 PM
Waxing Crescent, 46% visible
Pressure 30.12 in
Visibility 5.0 miles
Clouds Mostly Cloudy 400 ft
Overcast 800 ft
Dew Point 51 °F
Humidity 92%
Rainfall 1.14 in
Snow Depth Not available.
UV 0 out of 12
Pollen 1.30 out of 12
Air Quality Not available.
Flu Activity Not available.
SPECI KFTY 280929Z 25003KT 5SM RA BR BKN004 OVC008 12/11 A3012 RMK AO2 P0011 T01170111

More Conditions Fewer Conditions

Pressure 30.12 in
Visibility 5.0 miles
Clouds Mostly Cloudy 400 ft
Overcast 800 ft
Dew Point 51 °F
Humidity 92%
Rainfall 1.14 in
Snow Depth Not available.
UV 0 out of 12
Pollen 1.30 out of 12
Air Quality Not available.
Flu Activity Not available.
SPECI KFTY 280929Z 25003KT 5SM RA BR BKN004 OVC008 12/11 A3012 RMK AO2 P0011 T01170111

More Conditions Fewer Conditions

10-Day Weather Forecast

Almanac

Astronomy

Dec. 28, 2014 Rise Set
Actual Time
Civil Twilight
Nautical Twilight
Astronomical Twilight
Moon
Length of Visible Light
Length of Day
Tomorrow will be .
, % of the Moon is Illuminated

Today's Extremes

State Highs State Lows

Community

WunderPhotos

Upload Photos

1,781,207 photos uploaded!

WunderBlogs® & News

Nearby

Air Quality

  Air Quality AQ Index Pollutant
Not available.

Snow Depth

Station Depth Elevation

Earthquake Activity

City Distance Mag. Time & Date
Minimum magnitude displayed is 2.5.

Coastal Water Temperatures

Place Temperature

Nearby Weather Stations